Time;durP1;ratioP1;P1;durP2;ratioP2;P2;SDS_P1;SDS_P2;PMS_P1;PMS_P2;Temp;Humidity;BMP_temperature;BMP_pressure;BME280_temperature;BME280_humidity;BME280_pressure;Samples;Min_cycle;Max_cycle;Signal;HPM_P1;HPM_P2
2021/07/08 00:01:51;;;;;;;;;;;25.80;54.40;;;;;;5079014;28;19953;-62
2021/07/08 00:04:16;;;;;;;;;;;25.80;54.40;;;;;;5079054;28;20374;-61
2021/07/08 00:06:42;;;;;;;;;;;25.70;54.90;;;;;;5077417;28;20173;-62
2021/07/08 00:09:08;;;;;;;;;;;25.80;54.40;;;;;;5081619;28;20231;-60
2021/07/08 00:11:34;;;;;;;;;;;25.70;54.40;;;;;;5078159;28;19988;-60
2021/07/08 00:14:00;;;;;;;;;;;25.70;54.40;;;;;;5083545;28;19908;-62
2021/07/08 00:16:26;;;;;;;;;;;25.70;54.40;;;;;;5076882;28;19919;-61
2021/07/08 00:18:54;;;;;;;;;;;25.70;54.40;;;;;;5091371;28;19919;-61
2021/07/08 00:21:20;;;;;;;;;;;25.70;54.40;;;;;;5084544;28;20076;-60
2021/07/08 00:23:46;;;;;;;;;;;25.70;54.40;;;;;;5085814;28;20326;-60
2021/07/08 00:26:12;;;;;;;;;;;25.70;54.30;;;;;;5077769;28;19908;-62
2021/07/08 00:28:37;;;;;;;;;;;25.70;54.30;;;;;;5091841;28;20019;-60
2021/07/08 00:31:03;;;;;;;;;;;25.70;54.40;;;;;;5085815;28;19952;-63
2021/07/08 00:33:28;;;;;;;;;;;25.70;54.40;;;;;;5096277;28;19919;-60
2021/07/08 00:35:54;;;;;;;;;;;25.70;54.30;;;;;;5086105;28;20010;-62
2021/07/08 00:38:19;;;;;;;;;;;25.70;54.30;;;;;;5089966;28;20014;-61
2021/07/08 00:40:45;;;;;;;;;;;25.70;54.30;;;;;;5090614;28;20368;-61
2021/07/08 00:43:11;;;;;;;;;;;25.70;54.30;;;;;;5087005;28;19923;-59
2021/07/08 00:45:36;;;;;;;;;;;25.70;54.40;;;;;;5088664;28;19915;-60
2021/07/08 00:48:02;;;;;;;;;;;25.70;54.40;;;;;;5089001;28;19912;-60
2021/07/08 00:50:31;;;;;;;;;;;25.70;54.30;;;;;;5089746;28;20179;-61
2021/07/08 00:52:56;;;;;;;;;;;25.70;54.40;;;;;;5089630;28;19908;-60
2021/07/08 00:55:22;;;;;;;;;;;25.70;54.40;;;;;;5089786;28;20415;-60
2021/07/08 00:57:56;;;;;;;;;;;25.70;54.40;;;;;;5088828;28;20258;-59
2021/07/08 01:00:21;;;;;;;;;;;25.70;54.40;;;;;;5088600;28;19908;-59
2021/07/08 01:02:48;;;;;;;;;;;25.70;54.40;;;;;;5087730;28;19919;-59
2021/07/08 01:05:16;;;;;;;;;;;25.70;54.30;;;;;;5088499;28;19912;-60
2021/07/08 01:07:42;;;;;;;;;;;25.70;54.30;;;;;;5088417;28;20069;-60
2021/07/08 01:10:08;;;;;;;;;;;25.70;54.30;;;;;;5090267;28;20018;-61
2021/07/08 01:12:33;;;;;;;;;;;25.70;54.30;;;;;;5087249;28;19997;-62
2021/07/08 01:14:59;;;;;;;;;;;25.60;54.30;;;;;;5088711;28;20339;-58
2021/07/08 01:17:24;;;;;;;;;;;25.60;54.20;;;;;;5088743;28;19912;-59
2021/07/08 01:19:50;;;;;;;;;;;25.60;54.30;;;;;;5084385;28;20330;-60
2021/07/08 01:22:15;;;;;;;;;;;25.60;54.20;;;;;;5085722;28;19908;-60
2021/07/08 01:24:41;;;;;;;;;;;25.60;54.30;;;;;;5088225;28;19908;-61
2021/07/08 01:27:07;;;;;;;;;;;25.60;54.30;;;;;;5084978;28;20025;-60
2021/07/08 01:29:32;;;;;;;;;;;25.60;54.20;;;;;;5071755;28;19916;-60
2021/07/08 01:31:58;;;;;;;;;;;25.60;54.30;;;;;;5087762;28;20226;-61
2021/07/08 01:34:23;;;;;;;;;;;25.60;54.30;;;;;;5087315;28;19912;-61
2021/07/08 01:36:49;;;;;;;;;;;25.60;54.20;;;;;;5085819;28;20281;-59
2021/07/08 01:39:17;;;;;;;;;;;25.60;54.30;;;;;;5087999;28;19919;-60
2021/07/08 01:41:42;;;;;;;;;;;25.60;54.30;;;;;;5093227;28;19920;-60
2021/07/08 01:44:08;;;;;;;;;;;25.60;54.30;;;;;;5088527;28;19908;-61
2021/07/08 01:46:33;;;;;;;;;;;25.60;54.30;;;;;;5086916;28;20440;-59
2021/07/08 01:48:59;;;;;;;;;;;25.60;54.30;;;;;;5086439;28;19947;-60
2021/07/08 01:51:31;;;;;;;;;;;25.60;54.30;;;;;;5086132;28;20407;-59
2021/07/08 01:53:57;;;;;;;;;;;25.60;54.30;;;;;;5088492;28;20416;-59
2021/07/08 01:56:23;;;;;;;;;;;25.60;54.30;;;;;;5088296;28;19915;-59
2021/07/08 01:58:50;;;;;;;;;;;25.60;54.20;;;;;;5086589;28;19912;-60
2021/07/08 02:01:15;;;;;;;;;;;25.60;54.30;;;;;;5087134;28;19919;-60
2021/07/08 02:03:42;;;;;;;;;;;25.60;54.20;;;;;;5087939;28;19969;-59
2021/07/08 02:06:08;;;;;;;;;;;25.60;54.20;;;;;;5087524;28;19919;-62
2021/07/08 02:08:36;;;;;;;;;;;25.60;54.20;;;;;;5082411;28;19932;-60
2021/07/08 02:11:01;;;;;;;;;;;25.50;54.20;;;;;;5085896;28;19957;-58
2021/07/08 02:13:27;;;;;;;;;;;25.50;54.20;;;;;;5098452;28;20325;-61
2021/07/08 02:15:52;;;;;;;;;;;25.50;54.20;;;;;;5100535;28;19951;-60
2021/07/08 02:18:18;;;;;;;;;;;25.50;54.20;;;;;;5087497;28;19923;-59
2021/07/08 02:20:44;;;;;;;;;;;25.50;54.20;;;;;;5088527;28;19955;-60
2021/07/08 02:23:09;;;;;;;;;;;25.50;54.20;;;;;;5089696;28;19915;-61
2021/07/08 02:25:35;;;;;;;;;;;25.50;54.20;;;;;;5087623;28;19912;-60
2021/07/08 02:28:00;;;;;;;;;;;25.50;54.20;;;;;;5086579;28;19911;-61
2021/07/08 02:30:26;;;;;;;;;;;25.50;54.20;;;;;;5087815;28;19920;-60
2021/07/08 02:32:53;;;;;;;;;;;25.50;54.20;;;;;;5087076;28;19978;-60
2021/07/08 02:35:19;;;;;;;;;;;25.50;54.20;;;;;;5086440;28;19912;-60
2021/07/08 02:37:46;;;;;;;;;;;25.50;54.20;;;;;;5085985;28;20018;-59
2021/07/08 02:40:22;;;;;;;;;;;25.50;54.20;;;;;;5088445;28;20279;-59
2021/07/08 02:42:51;;;;;;;;;;;25.50;54.20;;;;;;5087200;28;20381;-60
2021/07/08 02:45:17;;;;;;;;;;;25.50;54.20;;;;;;5092328;28;19919;-61
2021/07/08 02:47:43;;;;;;;;;;;25.50;54.20;;;;;;5082954;28;19908;-60
2021/07/08 02:50:08;;;;;;;;;;;25.50;54.20;;;;;;5086795;28;19918;-62
2021/07/08 02:52:34;;;;;;;;;;;25.50;54.20;;;;;;5086561;28;20365;-59
2021/07/08 02:54:59;;;;;;;;;;;25.50;54.20;;;;;;5086086;28;19966;-59
2021/07/08 02:57:26;;;;;;;;;;;25.50;54.20;;;;;;5084084;28;20529;-60
2021/07/08 02:59:52;;;;;;;;;;;25.50;54.20;;;;;;5083448;28;19911;-59
2021/07/08 03:02:17;;;;;;;;;;;25.50;54.20;;;;;;5086738;28;19915;-60
2021/07/08 03:04:44;;;;;;;;;;;25.50;54.20;;;;;;5085512;28;20036;-60
2021/07/08 03:07:10;;;;;;;;;;;25.50;54.20;;;;;;5085686;28;19912;-60
2021/07/08 03:09:35;;;;;;;;;;;25.50;54.20;;;;;;5087429;28;19911;-59
2021/07/08 03:12:01;;;;;;;;;;;25.40;54.10;;;;;;5086610;28;19912;-60
2021/07/08 03:14:26;;;;;;;;;;;25.40;54.10;;;;;;5084126;28;20369;-60
2021/07/08 03:16:52;;;;;;;;;;;25.40;54.10;;;;;;5085153;28;20021;-59
2021/07/08 03:19:17;;;;;;;;;;;25.40;54.10;;;;;;5087899;28;19965;-60
2021/07/08 03:21:42;;;;;;;;;;;25.40;54.10;;;;;;5086518;28;19911;-59
2021/07/08 03:24:08;;;;;;;;;;;25.40;54.10;;;;;;5086681;28;19912;-60
2021/07/08 03:26:34;;;;;;;;;;;25.40;54.10;;;;;;5085691;28;19981;-61
2021/07/08 03:29:00;;;;;;;;;;;25.40;54.10;;;;;;5084274;28;19908;-60
2021/07/08 03:31:26;;;;;;;;;;;25.40;54.10;;;;;;5086016;28;19951;-59
2021/07/08 03:33:52;;;;;;;;;;;25.40;54.10;;;;;;5087049;28;19959;-60
2021/07/08 03:36:17;;;;;;;;;;;25.40;54.10;;;;;;5081683;28;19944;-60
2021/07/08 03:38:43;;;;;;;;;;;25.40;54.10;;;;;;5081893;28;19962;-60
2021/07/08 03:41:08;;;;;;;;;;;25.40;54.10;;;;;;5083552;28;19969;-60
2021/07/08 03:43:34;;;;;;;;;;;25.40;54.10;;;;;;5079808;28;19954;-59
2021/07/08 03:45:59;;;;;;;;;;;25.40;54.10;;;;;;5083358;28;19919;-59
2021/07/08 03:48:25;;;;;;;;;;;25.40;54.10;;;;;;5091292;28;20026;-59
2021/07/08 03:50:50;;;;;;;;;;;25.40;54.10;;;;;;5078356;28;19916;-60
2021/07/08 03:53:16;;;;;;;;;;;25.40;54.10;;;;;;5076062;28;19908;-60
2021/07/08 03:55:41;;;;;;;;;;;25.40;54.10;;;;;;5085243;28;19916;-58
2021/07/08 03:58:07;;;;;;;;;;;25.40;54.10;;;;;;5085560;28;19965;-59
2021/07/08 04:00:34;;;;;;;;;;;25.40;54.10;;;;;;5077358;28;19919;-61
2021/07/08 04:03:01;;;;;;;;;;;25.40;54.10;;;;;;5079186;28;19930;-59
2021/07/08 04:05:26;;;;;;;;;;;25.40;54.10;;;;;;5084571;28;19908;-59
2021/07/08 04:07:52;;;;;;;;;;;25.40;54.10;;;;;;5090186;28;20259;-60
2021/07/08 04:10:17;;;;;;;;;;;25.40;54.10;;;;;;5086995;28;19955;-60
2021/07/08 04:12:44;;;;;;;;;;;25.40;54.10;;;;;;5077951;28;19912;-61
2021/07/08 04:15:09;;;;;;;;;;;25.40;54.10;;;;;;5091156;28;19907;-59
2021/07/08 04:17:35;;;;;;;;;;;25.40;54.10;;;;;;5086942;28;20360;-60
2021/07/08 04:20:01;;;;;;;;;;;25.40;54.60;;;;;;5084715;28;19911;-60
2021/07/08 04:22:26;;;;;;;;;;;25.30;54.00;;;;;;5078215;28;19908;-60
2021/07/08 04:24:52;;;;;;;;;;;25.40;54.10;;;;;;5084679;28;19908;-60
2021/07/08 04:27:17;;;;;;;;;;;25.40;54.10;;;;;;5083746;28;19912;-59
2021/07/08 04:29:43;;;;;;;;;;;25.40;54.10;;;;;;5084902;28;19912;-61
2021/07/08 04:32:08;;;;;;;;;;;25.40;54.10;;;;;;5076963;28;20320;-62
2021/07/08 04:34:34;;;;;;;;;;;25.40;54.00;;;;;;5081678;28;19934;-61
2021/07/08 04:37:01;;;;;;;;;;;25.40;54.10;;;;;;5096219;28;19958;-60
2021/07/08 04:39:27;;;;;;;;;;;25.30;54.00;;;;;;5086182;28;20307;-60
2021/07/08 04:41:52;;;;;;;;;;;25.40;54.10;;;;;;5085736;28;19912;-62
2021/07/08 04:44:18;;;;;;;;;;;25.30;54.00;;;;;;5091789;28;19935;-61
2021/07/08 04:46:43;;;;;;;;;;;25.30;54.00;;;;;;5091234;28;19916;-62
2021/07/08 04:49:09;;;;;;;;;;;25.30;54.00;;;;;;5068382;28;20413;-61
2021/07/08 04:51:36;;;;;;;;;;;25.30;54.00;;;;;;5086115;28;19912;-61
2021/07/08 04:54:02;;;;;;;;;;;25.30;54.00;;;;;;5081529;28;19912;-60
2021/07/08 04:56:27;;;;;;;;;;;25.30;54.00;;;;;;5089146;28;20354;-62
2021/07/08 04:58:53;;;;;;;;;;;25.30;54.00;;;;;;5086753;28;19923;-59
2021/07/08 05:01:18;;;;;;;;;;;25.30;54.00;;;;;;5085280;28;19950;-60
2021/07/08 05:03:44;;;;;;;;;;;25.30;53.90;;;;;;5089556;28;19911;-62
2021/07/08 05:06:09;;;;;;;;;;;25.30;53.90;;;;;;5088909;28;19927;-59
2021/07/08 05:08:35;;;;;;;;;;;25.30;53.90;;;;;;5094872;28;19911;-60
2021/07/08 05:11:00;;;;;;;;;;;25.30;54.00;;;;;;5086446;28;20014;-61
2021/07/08 05:13:26;;;;;;;;;;;25.30;54.00;;;;;;5084790;28;19927;-60
2021/07/08 05:15:52;;;;;;;;;;;25.30;53.90;;;;;;5086999;28;19931;-61
2021/07/08 05:18:17;;;;;;;;;;;25.30;53.90;;;;;;5094364;28;19941;-59
2021/07/08 05:20:43;;;;;;;;;;;25.30;53.90;;;;;;5081649;28;19911;-62
2021/07/08 05:23:21;;;;;;;;;;;25.30;53.90;;;;;;5089215;28;20076;-61
2021/07/08 05:25:48;;;;;;;;;;;25.30;53.90;;;;;;5087417;28;19993;-60
2021/07/08 05:28:14;;;;;;;;;;;25.30;53.90;;;;;;5085403;28;19916;-62
2021/07/08 05:30:40;;;;;;;;;;;25.30;53.90;;;;;;5082948;28;20568;-61
2021/07/08 05:33:06;;;;;;;;;;;25.30;54.00;;;;;;5083744;28;19973;-62
2021/07/08 05:35:31;;;;;;;;;;;25.30;54.00;;;;;;5088909;28;19908;-60
2021/07/08 05:37:57;;;;;;;;;;;25.30;53.90;;;;;;5088837;28;19950;-59
2021/07/08 05:40:23;;;;;;;;;;;25.40;53.90;;;;;;5088457;28;20231;-59
2021/07/08 05:42:49;;;;;;;;;;;25.40;53.80;;;;;;5088549;28;19973;-60
2021/07/08 05:45:15;;;;;;;;;;;25.40;53.80;;;;;;5086893;28;19908;-60
2021/07/08 05:47:41;;;;;;;;;;;25.40;53.60;;;;;;5088732;28;20327;-62
2021/07/08 05:50:07;;;;;;;;;;;25.40;53.60;;;;;;5087377;28;19912;-60
2021/07/08 05:52:32;;;;;;;;;;;25.50;53.60;;;;;;5086806;28;19994;-60
2021/07/08 05:54:58;;;;;;;;;;;25.50;53.50;;;;;;5086046;28;19958;-59
2021/07/08 05:57:23;;;;;;;;;;;25.50;53.50;;;;;;5088713;28;19939;-60
2021/07/08 05:59:49;;;;;;;;;;;25.60;53.40;;;;;;5090676;28;19917;-59
2021/07/08 06:02:15;;;;;;;;;;;25.60;53.40;;;;;;5085347;28;20369;-62
2021/07/08 06:04:40;;;;;;;;;;;25.60;53.30;;;;;;5086523;28;20010;-60
2021/07/08 06:07:06;;;;;;;;;;;25.60;53.20;;;;;;5085130;28;20256;-56
2021/07/08 06:09:31;;;;;;;;;;;25.60;53.20;;;;;;5086408;28;20006;-60
2021/07/08 06:11:58;;;;;;;;;;;25.70;53.10;;;;;;5086445;28;19908;-59
2021/07/08 06:14:23;;;;;;;;;;;25.70;53.10;;;;;;5086194;28;20052;-60
2021/07/08 06:16:49;;;;;;;;;;;25.70;53.10;;;;;;5088824;28;20367;-60
2021/07/08 06:19:14;;;;;;;;;;;25.70;53.00;;;;;;5086266;28;19915;-60
2021/07/08 06:21:40;;;;;;;;;;;25.70;52.90;;;;;;5086759;28;19920;-61
2021/07/08 06:24:08;;;;;;;;;;;25.70;52.90;;;;;;5085201;28;19912;-61
2021/07/08 06:26:34;;;;;;;;;;;25.80;52.90;;;;;;5081486;28;20286;-60
2021/07/08 06:28:59;;;;;;;;;;;25.80;52.80;;;;;;5081738;28;19915;-61
2021/07/08 06:31:25;;;;;;;;;;;25.80;52.80;;;;;;5084445;28;19916;-60
2021/07/08 06:33:50;;;;;;;;;;;25.90;52.80;;;;;;5086179;28;19918;-60
2021/07/08 06:36:15;;;;;;;;;;;25.90;52.70;;;;;;5083069;28;20355;-61
2021/07/08 06:38:41;;;;;;;;;;;25.90;52.70;;;;;;5086680;28;19916;-61
2021/07/08 06:41:07;;;;;;;;;;;25.90;52.60;;;;;;5090398;28;20347;-59
2021/07/08 06:43:32;;;;;;;;;;;25.90;52.60;;;;;;5085764;28;19912;-57
2021/07/08 06:45:58;;;;;;;;;;;26.00;52.60;;;;;;5087341;28;20011;-60
2021/07/08 06:48:23;;;;;;;;;;;26.00;52.60;;;;;;5085813;28;19912;-61
2021/07/08 06:50:49;;;;;;;;;;;26.00;52.50;;;;;;5095511;28;20403;-60
2021/07/08 06:53:14;;;;;;;;;;;26.00;52.50;;;;;;5087359;28;19912;-60
2021/07/08 06:55:40;;;;;;;;;;;26.00;52.50;;;;;;5085219;28;19907;-60
2021/07/08 06:58:06;;;;;;;;;;;26.10;52.60;;;;;;5084764;28;19965;-61
2021/07/08 07:00:33;;;;;;;;;;;26.10;52.50;;;;;;5084134;28;19912;-61
2021/07/08 07:02:59;;;;;;;;;;;26.10;52.50;;;;;;5084505;28;19908;-61
2021/07/08 07:05:26;;;;;;;;;;;26.10;52.40;;;;;;5084920;28;19911;-59
2021/07/08 07:07:52;;;;;;;;;;;26.10;52.40;;;;;;5084546;28;20361;-60
2021/07/08 07:10:20;;;;;;;;;;;26.10;52.40;;;;;;5082304;28;19998;-59
2021/07/08 07:12:46;;;;;;;;;;;26.10;52.40;;;;;;5084822;28;20692;-60
2021/07/08 07:15:12;;;;;;;;;;;26.10;52.30;;;;;;5083487;28;19965;-60
2021/07/08 07:17:38;;;;;;;;;;;26.20;52.40;;;;;;5080014;28;19914;-60
2021/07/08 07:20:08;;;;;;;;;;;26.20;52.30;;;;;;5086759;28;19911;-60
2021/07/08 07:22:33;;;;;;;;;;;26.20;52.30;;;;;;5100622;28;20380;-61
2021/07/08 07:24:59;;;;;;;;;;;26.20;52.40;;;;;;5086688;28;19956;-59
2021/07/08 07:27:25;;;;;;;;;;;26.20;52.30;;;;;;5084020;28;19912;-61
2021/07/08 07:29:51;;;;;;;;;;;26.20;52.20;;;;;;5087277;28;19908;-59
2021/07/08 07:32:16;;;;;;;;;;;26.20;52.20;;;;;;5095213;28;20369;-62
2021/07/08 07:34:42;;;;;;;;;;;26.30;52.40;;;;;;5104392;28;20027;-60
2021/07/08 07:37:07;;;;;;;;;;;26.30;52.30;;;;;;5086225;28;20041;-59
2021/07/08 07:39:33;;;;;;;;;;;26.30;52.50;;;;;;5087194;28;20378;-59
2021/07/08 07:41:58;;;;;;;;;;;26.30;52.20;;;;;;5088364;28;19916;-59
2021/07/08 07:44:24;;;;;;;;;;;26.30;52.20;;;;;;5085293;28;20412;-61
2021/07/08 07:46:49;;;;;;;;;;;26.30;52.30;;;;;;5086818;28;20002;-59
2021/07/08 07:49:16;;;;;;;;;;;26.40;52.40;;;;;;5088251;28;20184;-61
2021/07/08 07:51:41;;;;;;;;;;;26.30;52.40;;;;;;5085395;28;19926;-60
2021/07/08 07:54:07;;;;;;;;;;;26.40;52.30;;;;;;5102080;28;19912;-61
2021/07/08 07:56:32;;;;;;;;;;;26.40;52.30;;;;;;5081443;28;20011;-59
2021/07/08 07:58:58;;;;;;;;;;;26.40;52.50;;;;;;5085859;28;20261;-61
2021/07/08 08:01:23;;;;;;;;;;;26.40;52.50;;;;;;5084675;28;19923;-61
2021/07/08 08:03:50;;;;;;;;;;;26.40;52.40;;;;;;5085721;28;19950;-59
2021/07/08 08:09:00;;;;;;;;;;;26.40;52.30;;;;;;5085572;28;19962;-60
2021/07/08 08:11:26;;;;;;;;;;;26.40;52.30;;;;;;5091471;28;19920;-62
2021/07/08 08:13:51;;;;;;;;;;;26.40;52.90;;;;;;5087901;28;20011;-60
2021/07/08 08:16:17;;;;;;;;;;;26.40;52.60;;;;;;5086441;28;19994;-59
2021/07/08 08:18:42;;;;;;;;;;;26.50;52.60;;;;;;5086988;28;20341;-59
2021/07/08 08:21:08;;;;;;;;;;;26.50;52.30;;;;;;5096130;28;19915;-60
2021/07/08 08:23:34;;;;;;;;;;;26.50;52.30;;;;;;5086716;28;19912;-60
2021/07/08 08:26:00;;;;;;;;;;;26.50;52.50;;;;;;5083556;28;19912;-60
2021/07/08 08:28:26;;;;;;;;;;;26.50;52.60;;;;;;5085565;28;20416;-59
2021/07/08 08:30:52;;;;;;;;;;;26.50;52.20;;;;;;5086024;28;19916;-60
2021/07/08 08:33:17;;;;;;;;;;;26.50;52.40;;;;;;5077670;28;20346;-60
2021/07/08 08:35:43;;;;;;;;;;;26.50;52.20;;;;;;5086519;28;19999;-61
2021/07/08 08:38:08;;;;;;;;;;;26.50;52.20;;;;;;5087373;28;20347;-60
2021/07/08 08:40:34;;;;;;;;;;;26.50;52.10;;;;;;5085445;28;20236;-60
2021/07/08 08:42:59;;;;;;;;;;;26.50;52.10;;;;;;5087247;28;19912;-60
2021/07/08 08:45:25;;;;;;;;;;;26.60;52.10;;;;;;5086646;28;20313;-60
2021/07/08 08:48:11;;;;;;;;;;;26.50;52.00;;;;;;5085665;28;19908;-60
2021/07/08 08:50:41;;;;;;;;;;;26.60;52.10;;;;;;5086000;28;19945;-60
2021/07/08 08:53:07;;;;;;;;;;;26.60;52.10;;;;;;5092810;28;19916;-61
2021/07/08 08:55:36;;;;;;;;;;;26.60;52.20;;;;;;5087337;28;20414;-60
2021/07/08 08:58:03;;;;;;;;;;;26.60;52.10;;;;;;5088462;28;19916;-61
2021/07/08 09:00:30;;;;;;;;;;;26.60;52.00;;;;;;5090734;28;19936;-60
2021/07/08 09:02:59;;;;;;;;;;;26.60;52.00;;;;;;5090410;28;19915;-61
2021/07/08 09:05:24;;;;;;;;;;;26.60;52.00;;;;;;5087995;28;19945;-59
2021/07/08 09:07:50;;;;;;;;;;;26.60;52.10;;;;;;5088822;28;20315;-60
2021/07/08 09:10:16;;;;;;;;;;;26.60;52.00;;;;;;5090286;28;19923;-61
2021/07/08 09:12:41;;;;;;;;;;;26.60;52.00;;;;;;5094407;28;19926;-61
2021/07/08 09:15:33;;;;;;;;;;;26.60;52.20;;;;;;5095265;28;19908;-61
2021/07/08 09:17:59;;;;;;;;;;;26.60;52.20;;;;;;5091503;28;19908;-61
2021/07/08 09:20:25;;;;;;;;;;;26.60;52.10;;;;;;5096235;28;19931;-60
2021/07/08 09:22:50;;;;;;;;;;;26.60;52.10;;;;;;5089259;28;19958;-60
2021/07/08 09:25:19;;;;;;;;;;;26.70;52.10;;;;;;5088269;28;20374;-62
2021/07/08 09:27:45;;;;;;;;;;;26.70;52.00;;;;;;5087812;28;19947;-62
2021/07/08 09:30:23;;;;;;;;;;;26.70;52.10;;;;;;5089318;28;19955;-61
2021/07/08 09:32:49;;;;;;;;;;;26.70;52.10;;;;;;5088256;28;19955;-60
2021/07/08 09:35:15;;;;;;;;;;;26.70;52.10;;;;;;5098176;28;19951;-61
2021/07/08 09:37:41;;;;;;;;;;;26.70;52.00;;;;;;5088437;28;19912;-62
2021/07/08 09:40:08;;;;;;;;;;;26.70;52.20;;;;;;5095591;28;19920;-61
2021/07/08 09:42:37;;;;;;;;;;;26.70;52.10;;;;;;5093806;28;20001;-61
2021/07/08 09:45:04;;;;;;;;;;;26.70;52.20;;;;;;5089378;28;19908;-60
2021/07/08 09:47:30;;;;;;;;;;;26.70;52.00;;;;;;5087364;28;20003;-61
2021/07/08 09:49:56;;;;;;;;;;;26.70;52.10;;;;;;5088408;28;19926;-62
2021/07/08 09:52:22;;;;;;;;;;;26.70;52.00;;;;;;5084085;28;19916;-60
2021/07/08 09:57:31;;;;;;;;;;;26.70;52.20;;;;;;5087244;28;19998;-63
2021/07/08 09:59:56;;;;;;;;;;;26.70;52.00;;;;;;5087963;28;20349;-61
2021/07/08 10:02:32;;;;;;;;;;;26.80;52.10;;;;;;5088170;28;19912;-62
2021/07/08 10:05:01;;;;;;;;;;;26.80;52.20;;;;;;5069136;28;19919;-62
2021/07/08 10:07:27;;;;;;;;;;;26.80;52.20;;;;;;5087749;28;19919;-60
2021/07/08 10:09:52;;;;;;;;;;;26.80;52.10;;;;;;5087197;28;19919;-60
2021/07/08 10:12:18;;;;;;;;;;;26.80;52.20;;;;;;5089943;28;19922;-60
2021/07/08 10:14:45;;;;;;;;;;;26.80;52.20;;;;;;5088552;28;19931;-62
2021/07/08 10:17:11;;;;;;;;;;;26.80;52.10;;;;;;5090231;28;19959;-60
2021/07/08 10:19:37;;;;;;;;;;;26.80;52.10;;;;;;5102913;28;19954;-60
2021/07/08 10:22:02;;;;;;;;;;;26.80;52.30;;;;;;5092386;28;19916;-61
2021/07/08 10:24:29;;;;;;;;;;;26.80;52.60;;;;;;5085350;28;19916;-61
2021/07/08 10:26:55;;;;;;;;;;;26.90;52.50;;;;;;5087026;28;19954;-61
2021/07/08 10:29:21;;;;;;;;;;;26.80;52.20;;;;;;5059322;28;19912;-62
2021/07/08 10:31:47;;;;;;;;;;;26.80;52.20;;;;;;5084483;28;19912;-62
2021/07/08 10:34:14;;;;;;;;;;;26.80;53.10;;;;;;5086769;28;19923;-63
2021/07/08 10:36:42;;;;;;;;;;;26.80;53.00;;;;;;5085575;28;19915;-63
2021/07/08 10:39:08;;;;;;;;;;;26.80;52.40;;;;;;5088380;28;20051;-62
2021/07/08 10:41:34;;;;;;;;;;;26.80;52.40;;;;;;5083076;28;19916;-62
2021/07/08 10:43:59;;;;;;;;;;;26.80;52.50;;;;;;5085379;28;19998;-60
2021/07/08 10:46:33;;;;;;;;;;;26.80;52.60;;;;;;5086029;28;19912;-61
2021/07/08 10:49:09;;;;;;;;;;;26.70;52.70;;;;;;5087697;28;19912;-60
2021/07/08 10:51:40;;;;;;;;;;;26.70;52.90;;;;;;5090457;28;19912;-61
2021/07/08 10:54:32;;;;;;;;;;;26.70;53.00;;;;;;5087478;28;19916;-62
2021/07/08 10:57:02;;;;;;;;;;;26.70;53.00;;;;;;5080124;28;19983;-61
2021/07/08 10:59:47;;;;;;;;;;;26.70;53.10;;;;;;5086161;28;19954;-61
2021/07/08 11:02:31;;;;;;;;;;;26.70;53.20;;;;;;5083487;28;19919;-62
2021/07/08 11:04:56;;;;;;;;;;;26.70;53.10;;;;;;5081660;28;19912;-61
2021/07/08 11:07:22;;;;;;;;;;;26.70;52.90;;;;;;5083800;28;20022;-61
2021/07/08 11:09:55;;;;;;;;;;;26.70;52.90;;;;;;5081307;28;19908;-62
2021/07/08 11:12:33;;;;;;;;;;;26.80;52.90;;;;;;5088458;28;19911;-62
2021/07/08 11:14:59;;;;;;;;;;;26.80;53.00;;;;;;5086527;28;20367;-62
2021/07/08 11:17:26;;;;;;;;;;;26.80;53.00;;;;;;5085298;28;19923;-61
2021/07/08 11:19:52;;;;;;;;;;;26.80;53.10;;;;;;5084636;28;20431;-61
2021/07/08 11:22:20;;;;;;;;;;;26.80;53.10;;;;;;5088670;28;20392;-61
2021/07/08 11:24:52;;;;;;;;;;;26.80;53.10;;;;;;5081474;28;19955;-62
2021/07/08 11:27:21;;;;;;;;;;;26.80;53.10;;;;;;5085430;28;19908;-61
2021/07/08 11:29:47;;;;;;;;;;;26.80;53.10;;;;;;5085660;28;19911;-61
2021/07/08 11:32:16;;;;;;;;;;;26.80;52.90;;;;;;5090576;28;20026;-61
2021/07/08 11:34:49;;;;;;;;;;;26.80;52.80;;;;;;5083922;28;19981;-62
2021/07/08 11:37:16;;;;;;;;;;;26.80;52.70;;;;;;5081858;28;19908;-61
2021/07/08 11:39:42;;;;;;;;;;;26.90;52.70;;;;;;5084439;28;19912;-61
2021/07/08 11:42:07;;;;;;;;;;;26.80;52.60;;;;;;5087109;28;19908;-59
2021/07/08 11:44:33;;;;;;;;;;;26.80;52.50;;;;;;5088836;28;19912;-62
2021/07/08 11:46:59;;;;;;;;;;;26.80;52.50;;;;;;5079942;28;20333;-60
2021/07/08 11:49:26;;;;;;;;;;;26.90;52.50;;;;;;5081331;28;20385;-60
2021/07/08 11:51:51;;;;;;;;;;;26.80;52.40;;;;;;5080504;28;20466;-60
2021/07/08 11:54:17;;;;;;;;;;;26.80;52.40;;;;;;5081524;28;20014;-62
2021/07/08 11:56:43;;;;;;;;;;;26.80;52.40;;;;;;5078454;28;19941;-61
2021/07/08 11:59:08;;;;;;;;;;;26.80;52.40;;;;;;5080924;28;20026;-63
2021/07/08 12:01:38;;;;;;;;;;;26.80;52.40;;;;;;5077983;28;19916;-59
2021/07/08 12:04:03;;;;;;;;;;;26.80;52.40;;;;;;5079478;28;19912;-61
2021/07/08 12:06:30;;;;;;;;;;;26.80;52.50;;;;;;5079283;28;19938;-60
2021/07/08 12:08:58;;;;;;;;;;;26.80;52.50;;;;;;5086797;28;20248;-60
2021/07/08 12:11:37;;;;;;;;;;;26.80;52.60;;;;;;5086575;28;20010;-62
2021/07/08 12:14:07;;;;;;;;;;;26.80;52.50;;;;;;5082095;28;19911;-62
2021/07/08 12:16:32;;;;;;;;;;;26.80;52.50;;;;;;5081386;28;19918;-60
2021/07/08 12:18:59;;;;;;;;;;;26.80;52.50;;;;;;5084769;28;20323;-60
2021/07/08 12:21:30;;;;;;;;;;;26.80;52.60;;;;;;5084196;28;20003;-61
2021/07/08 12:24:00;;;;;;;;;;;26.80;52.50;;;;;;5087271;28;19911;-60
2021/07/08 12:26:27;;;;;;;;;;;26.80;52.50;;;;;;5080739;28;19964;-62
2021/07/08 12:29:09;;;;;;;;;;;26.80;52.50;;;;;;5094787;28;20379;-58
2021/07/08 12:31:41;;;;;;;;;;;26.90;52.60;;;;;;5080286;28;20216;-60
2021/07/08 12:34:07;;;;;;;;;;;26.90;52.50;;;;;;5095342;28;19970;-62
2021/07/08 12:36:32;;;;;;;;;;;26.90;52.50;;;;;;5098721;28;20145;-60
2021/07/08 12:38:57;;;;;;;;;;;26.90;52.70;;;;;;5092303;28;19919;-60
2021/07/08 12:41:23;;;;;;;;;;;26.90;52.70;;;;;;5088141;28;20007;-60
2021/07/08 12:43:48;;;;;;;;;;;26.90;52.60;;;;;;5091089;28;20305;-60
2021/07/08 12:46:14;;;;;;;;;;;26.90;52.50;;;;;;5089473;28;20003;-61
2021/07/08 12:48:41;;;;;;;;;;;26.90;52.50;;;;;;5095874;28;20274;-60
2021/07/08 12:51:08;;;;;;;;;;;26.90;52.50;;;;;;5092378;28;19927;-60
2021/07/08 12:53:34;;;;;;;;;;;26.90;52.60;;;;;;5095634;28;20056;-61
2021/07/08 12:56:08;;;;;;;;;;;26.90;52.50;;;;;;5088292;28;20010;-61
2021/07/08 12:58:34;;;;;;;;;;;27.00;52.40;;;;;;5089711;28;19927;-59
2021/07/08 13:01:01;;;;;;;;;;;26.90;52.40;;;;;;5085882;28;20274;-61
2021/07/08 13:03:27;;;;;;;;;;;27.00;52.60;;;;;;5096662;28;19990;-62
2021/07/08 13:05:53;;;;;;;;;;;27.00;52.60;;;;;;5098530;28;20015;-60
2021/07/08 13:08:20;;;;;;;;;;;27.00;52.70;;;;;;5090636;28;19912;-60
2021/07/08 13:10:47;;;;;;;;;;;27.00;52.60;;;;;;5085032;28;19923;-60
2021/07/08 13:13:13;;;;;;;;;;;27.00;52.90;;;;;;5087375;28;19916;-60
2021/07/08 13:15:46;;;;;;;;;;;27.00;52.70;;;;;;5091404;28;19912;-59
2021/07/08 13:18:13;;;;;;;;;;;27.00;52.70;;;;;;5085951;28;19920;-62
2021/07/08 13:20:46;;;;;;;;;;;27.00;52.50;;;;;;5086922;28;20407;-60
2021/07/08 13:23:14;;;;;;;;;;;27.00;52.40;;;;;;5085852;28;19916;-60
2021/07/08 13:25:40;;;;;;;;;;;27.00;52.60;;;;;;5075559;28;19912;-62
2021/07/08 13:28:19;;;;;;;;;;;27.00;52.50;;;;;;5088358;28;19962;-62
2021/07/08 13:30:55;;;;;;;;;;;27.00;52.40;;;;;;5081388;28;20208;-59
2021/07/08 13:33:26;;;;;;;;;;;27.00;52.40;;;;;;5081892;28;19911;-61
2021/07/08 13:35:57;;;;;;;;;;;27.00;52.50;;;;;;5083923;28;19911;-60
2021/07/08 13:38:24;;;;;;;;;;;27.00;52.50;;;;;;5081096;28;19916;-60
2021/07/08 13:41:05;;;;;;;;;;;27.00;52.50;;;;;;5077444;28;20002;-59
2021/07/08 13:43:31;;;;;;;;;;;27.10;52.40;;;;;;5084485;28;19912;-60
2021/07/08 13:46:07;;;;;;;;;;;27.10;52.20;;;;;;5084040;28;20266;-60
2021/07/08 13:48:36;;;;;;;;;;;27.10;52.20;;;;;;5085810;28;20391;-60
2021/07/08 13:51:03;;;;;;;;;;;27.10;52.40;;;;;;5084005;28;20012;-60
2021/07/08 13:53:29;;;;;;;;;;;27.10;52.70;;;;;;5084368;28;19919;-61
2021/07/08 13:55:54;;;;;;;;;;;27.10;52.80;;;;;;5082116;28;19915;-60
2021/07/08 13:58:20;;;;;;;;;;;27.10;52.60;;;;;;5080476;28;20320;-60
2021/07/08 14:00:45;;;;;;;;;;;27.10;52.70;;;;;;5079795;28;19922;-58
2021/07/08 14:03:11;;;;;;;;;;;27.10;52.30;;;;;;5080967;28;19916;-60
2021/07/08 14:05:36;;;;;;;;;;;27.10;52.40;;;;;;5079986;28;19922;-60
2021/07/08 14:08:02;;;;;;;;;;;27.10;52.30;;;;;;5080531;28;19912;-60
2021/07/08 14:10:28;;;;;;;;;;;27.10;52.20;;;;;;5081425;28;20041;-60
2021/07/08 14:12:53;;;;;;;;;;;27.10;52.20;;;;;;5082769;28;19939;-60
2021/07/08 14:15:19;;;;;;;;;;;27.10;52.10;;;;;;5079110;28;19922;-61
2021/07/08 14:17:44;;;;;;;;;;;27.10;52.20;;;;;;5082748;28;19947;-61
2021/07/08 14:20:10;;;;;;;;;;;27.10;51.90;;;;;;5080706;28;20240;-62